YPEF weather

Penfield Airfield
Sunbury, Victoria, Australia

Public forecast

Using degrees Celsius for public forecast. Weather courtesy of forecast.io.

METAR (pilot weather report)

Closest report is Melbourne International Airport, 11.8 nm (21.9 km) SE. Retrieved 2019/03/19 07:30 UTC (0 seconds ago):

YMML 190730Z 19012KT 9999 FEW010 BKN012 20/17 Q1015 NOSIG

TAF (pilot weather forecast)

Forecast is more than 12 hours old.

Closest forecast is Melbourne International Airport, 11.8 nm (21.9 km) SE. Retrieved 2019/03/18 18:39 UTC (13 hours ago):

TAF YMML 181704Z 1818/1924 17006KT 9999 BKN008 FM182300 17010KT 9999 BKN014 FM190100 19012KT 9999 FEW020 BKN030 FM190900 19008KT 9999 -DZ FEW012 BKN020 FM191200 20008KT 9999 -DZ BKN010 FM192300 20008KT 9999 FEW010 BKN016 INTER 1818/1823 6000 -DZ BKN007 TEMPO 1913/1921 5000 -DZ BKN005